Terminal Aerodrome Forecast
Issued by NWS Duluth, MN

Home | Current Version | Previous Version | Text Only | Print | Product List | Glossary On
Versions: 1 2 3 4 5 6 7 8 9 10 11 12 13 14 15 16 17 18 19 20 21 22 23 24 25 26 27
000
FTUS43 KDLH 182200 AAA
TAFINL
TAF AMD
KINL 182217Z 1822/1918 22008KT P6SM BKN025 OVC050
      TEMPO 1823/1901 SCT025 OVC050
     FM190100 21005KT 5SM -SN OVC030
     FM190300 22004KT 3SM -SN OVC015
     FM190900 25005KT 3SM -SN OVC015
     FM191300 30010KT 4SM -SN OVC015=

USA.gov is the U.S. government's official web portal to all federal, state and local government web resources and services.